sensor_id;sensor_type;location;lat;lon;timestamp;P1;durP1;ratioP1;P2;durP2;ratioP2
17340;SDS011;8788;49.930;8.660;2022-07-22T00:00:12;5.63;;;5.00;;
17340;SDS011;8788;49.930;8.660;2022-07-22T00:02:41;4.85;;;4.40;;
17340;SDS011;8788;49.930;8.660;2022-07-22T00:05:08;5.10;;;4.60;;
17340;SDS011;8788;49.930;8.660;2022-07-22T00:07:38;8.35;;;4.60;;
17340;SDS011;8788;49.930;8.660;2022-07-22T00:10:06;6.63;;;4.55;;
17340;SDS011;8788;49.930;8.660;2022-07-22T00:12:36;4.45;;;4.05;;
17340;SDS011;8788;49.930;8.660;2022-07-22T00:15:04;9.30;;;4.47;;
17340;SDS011;8788;49.930;8.660;2022-07-22T00:17:32;5.78;;;4.07;;
17340;SDS011;8788;49.930;8.660;2022-07-22T00:20:01;5.38;;;4.57;;
17340;SDS011;8788;49.930;8.660;2022-07-22T00:22:29;6.80;;;4.65;;
17340;SDS011;8788;49.930;8.660;2022-07-22T00:24:58;5.25;;;3.85;;
17340;SDS011;8788;49.930;8.660;2022-07-22T00:27:25;4.22;;;3.80;;
17340;SDS011;8788;49.930;8.660;2022-07-22T00:29:52;4.60;;;4.18;;
17340;SDS011;8788;49.930;8.660;2022-07-22T00:32:19;4.60;;;4.10;;
17340;SDS011;8788;49.930;8.660;2022-07-22T00:34:46;4.88;;;4.38;;
17340;SDS011;8788;49.930;8.660;2022-07-22T00:37:14;4.43;;;3.97;;
17340;SDS011;8788;49.930;8.660;2022-07-22T00:39:41;6.10;;;4.45;;
17340;SDS011;8788;49.930;8.660;2022-07-22T00:42:09;4.35;;;3.95;;
17340;SDS011;8788;49.930;8.660;2022-07-22T00:44:37;4.78;;;4.30;;
17340;SDS011;8788;49.930;8.660;2022-07-22T00:47:04;5.57;;;4.15;;
17340;SDS011;8788;49.930;8.660;2022-07-22T00:49:32;5.15;;;3.28;;
17340;SDS011;8788;49.930;8.660;2022-07-22T00:51:59;5.53;;;3.90;;
17340;SDS011;8788;49.930;8.660;2022-07-22T00:54:27;7.35;;;3.88;;
17340;SDS011;8788;49.930;8.660;2022-07-22T00:56:55;6.20;;;4.15;;
17340;SDS011;8788;49.930;8.660;2022-07-22T00:59:23;4.65;;;4.00;;
17340;SDS011;8788;49.930;8.660;2022-07-22T01:01:51;4.80;;;3.88;;
17340;SDS011;8788;49.930;8.660;2022-07-22T01:04:18;4.25;;;3.85;;
17340;SDS011;8788;49.930;8.660;2022-07-22T01:06:46;5.05;;;4.18;;
17340;SDS011;8788;49.930;8.660;2022-07-22T01:09:14;5.40;;;4.28;;
17340;SDS011;8788;49.930;8.660;2022-07-22T01:11:41;6.65;;;4.32;;
17340;SDS011;8788;49.930;8.660;2022-07-22T01:14:09;4.57;;;3.65;;
17340;SDS011;8788;49.930;8.660;2022-07-22T01:16:37;7.15;;;4.28;;
17340;SDS011;8788;49.930;8.660;2022-07-22T01:19:04;5.13;;;4.05;;
17340;SDS011;8788;49.930;8.660;2022-07-22T01:21:33;4.65;;;3.78;;
17340;SDS011;8788;49.930;8.660;2022-07-22T01:24:00;4.15;;;3.70;;
17340;SDS011;8788;49.930;8.660;2022-07-22T01:26:28;4.53;;;4.03;;
17340;SDS011;8788;49.930;8.660;2022-07-22T01:28:55;5.18;;;3.72;;
17340;SDS011;8788;49.930;8.660;2022-07-22T01:31:22;5.43;;;4.50;;
17340;SDS011;8788;49.930;8.660;2022-07-22T01:33:49;5.07;;;4.65;;
17340;SDS011;8788;49.930;8.660;2022-07-22T01:36:17;5.45;;;4.20;;
17340;SDS011;8788;49.930;8.660;2022-07-22T01:38:46;6.72;;;4.03;;
17340;SDS011;8788;49.930;8.660;2022-07-22T01:41:13;5.78;;;4.55;;
17340;SDS011;8788;49.930;8.660;2022-07-22T01:43:40;4.88;;;4.18;;
17340;SDS011;8788;49.930;8.660;2022-07-22T01:46:08;4.88;;;4.30;;
17340;SDS011;8788;49.930;8.660;2022-07-22T01:48:40;7.05;;;4.88;;
17340;SDS011;8788;49.930;8.660;2022-07-22T01:51:07;6.55;;;4.97;;
17340;SDS011;8788;49.930;8.660;2022-07-22T01:53:36;6.13;;;4.93;;
17340;SDS011;8788;49.930;8.660;2022-07-22T01:56:06;5.22;;;4.25;;
17340;SDS011;8788;49.930;8.660;2022-07-22T01:58:40;5.05;;;4.55;;
17340;SDS011;8788;49.930;8.660;2022-07-22T02:01:08;8.75;;;5.18;;
17340;SDS011;8788;49.930;8.660;2022-07-22T02:03:35;5.00;;;4.50;;
17340;SDS011;8788;49.930;8.660;2022-07-22T02:06:06;6.05;;;4.38;;
17340;SDS011;8788;49.930;8.660;2022-07-22T02:08:33;5.57;;;5.07;;
17340;SDS011;8788;49.930;8.660;2022-07-22T02:11:10;5.47;;;3.83;;
17340;SDS011;8788;49.930;8.660;2022-07-22T02:13:54;5.88;;;4.15;;
17340;SDS011;8788;49.930;8.660;2022-07-22T02:16:22;4.57;;;4.18;;
17340;SDS011;8788;49.930;8.660;2022-07-22T02:18:51;5.18;;;4.13;;
17340;SDS011;8788;49.930;8.660;2022-07-22T02:21:18;6.55;;;4.72;;
17340;SDS011;8788;49.930;8.660;2022-07-22T02:23:46;5.30;;;3.63;;
17340;SDS011;8788;49.930;8.660;2022-07-22T02:26:15;7.50;;;4.63;;
17340;SDS011;8788;49.930;8.660;2022-07-22T02:28:44;3.80;;;3.50;;
17340;SDS011;8788;49.930;8.660;2022-07-22T02:31:11;7.80;;;4.60;;
17340;SDS011;8788;49.930;8.660;2022-07-22T02:33:38;5.68;;;5.07;;
17340;SDS011;8788;49.930;8.660;2022-07-22T02:36:06;4.70;;;4.07;;
17340;SDS011;8788;49.930;8.660;2022-07-22T02:38:35;5.28;;;4.78;;
17340;SDS011;8788;49.930;8.660;2022-07-22T02:41:02;4.80;;;4.15;;
17340;SDS011;8788;49.930;8.660;2022-07-22T02:43:33;6.20;;;4.25;;
17340;SDS011;8788;49.930;8.660;2022-07-22T02:46:00;4.80;;;4.32;;
17340;SDS011;8788;49.930;8.660;2022-07-22T02:48:27;4.32;;;4.00;;
17340;SDS011;8788;49.930;8.660;2022-07-22T02:50:54;5.63;;;4.72;;
17340;SDS011;8788;49.930;8.660;2022-07-22T02:53:24;4.75;;;4.32;;
17340;SDS011;8788;49.930;8.660;2022-07-22T02:55:52;6.38;;;5.20;;
17340;SDS011;8788;49.930;8.660;2022-07-22T02:58:19;4.95;;;4.40;;
17340;SDS011;8788;49.930;8.660;2022-07-22T03:00:47;4.70;;;4.07;;
17340;SDS011;8788;49.930;8.660;2022-07-22T03:03:15;6.78;;;4.65;;
17340;SDS011;8788;49.930;8.660;2022-07-22T03:05:42;5.32;;;4.47;;
17340;SDS011;8788;49.930;8.660;2022-07-22T03:08:22;5.28;;;4.60;;
17340;SDS011;8788;49.930;8.660;2022-07-22T03:10:51;6.53;;;4.78;;
17340;SDS011;8788;49.930;8.660;2022-07-22T03:13:19;6.03;;;4.90;;
17340;SDS011;8788;49.930;8.660;2022-07-22T03:15:48;5.90;;;4.80;;
17340;SDS011;8788;49.930;8.660;2022-07-22T03:18:16;7.45;;;4.72;;
17340;SDS011;8788;49.930;8.660;2022-07-22T03:20:43;7.97;;;4.20;;
17340;SDS011;8788;49.930;8.660;2022-07-22T03:23:10;4.78;;;4.28;;
17340;SDS011;8788;49.930;8.660;2022-07-22T03:25:37;6.47;;;4.53;;
17340;SDS011;8788;49.930;8.660;2022-07-22T03:28:05;5.38;;;4.45;;
17340;SDS011;8788;49.930;8.660;2022-07-22T03:30:32;5.72;;;4.72;;
17340;SDS011;8788;49.930;8.660;2022-07-22T03:33:01;5.47;;;5.00;;
17340;SDS011;8788;49.930;8.660;2022-07-22T03:35:31;5.45;;;4.43;;
17340;SDS011;8788;49.930;8.660;2022-07-22T03:37:58;7.47;;;4.15;;
17340;SDS011;8788;49.930;8.660;2022-07-22T03:40:27;6.35;;;4.05;;
17340;SDS011;8788;49.930;8.660;2022-07-22T03:42:55;4.30;;;3.90;;
17340;SDS011;8788;49.930;8.660;2022-07-22T03:45:23;4.40;;;4.00;;
17340;SDS011;8788;49.930;8.660;2022-07-22T03:47:50;6.25;;;4.00;;
17340;SDS011;8788;49.930;8.660;2022-07-22T03:50:22;5.28;;;4.20;;
17340;SDS011;8788;49.930;8.660;2022-07-22T03:52:49;5.05;;;4.55;;
17340;SDS011;8788;49.930;8.660;2022-07-22T03:55:16;5.13;;;4.38;;
17340;SDS011;8788;49.930;8.660;2022-07-22T03:57:47;4.55;;;4.15;;
17340;SDS011;8788;49.930;8.660;2022-07-22T04:00:24;4.60;;;3.53;;
17340;SDS011;8788;49.930;8.660;2022-07-22T04:02:51;4.78;;;4.38;;
17340;SDS011;8788;49.930;8.660;2022-07-22T04:05:39;5.07;;;4.13;;
17340;SDS011;8788;49.930;8.660;2022-07-22T04:08:06;10.15;;;4.47;;
17340;SDS011;8788;49.930;8.660;2022-07-22T04:10:34;5.82;;;4.85;;
17340;SDS011;8788;49.930;8.660;2022-07-22T04:13:01;5.03;;;4.50;;
17340;SDS011;8788;49.930;8.660;2022-07-22T04:15:44;6.05;;;4.30;;
17340;SDS011;8788;49.930;8.660;2022-07-22T04:18:11;5.28;;;4.35;;
17340;SDS011;8788;49.930;8.660;2022-07-22T04:20:41;5.00;;;4.53;;
17340;SDS011;8788;49.930;8.660;2022-07-22T04:23:18;7.45;;;5.38;;
17340;SDS011;8788;49.930;8.660;2022-07-22T04:25:45;5.65;;;4.65;;
17340;SDS011;8788;49.930;8.660;2022-07-22T04:28:12;5.15;;;4.65;;
17340;SDS011;8788;49.930;8.660;2022-07-22T04:30:41;5.55;;;5.00;;
17340;SDS011;8788;49.930;8.660;2022-07-22T04:33:08;6.55;;;5.13;;
17340;SDS011;8788;49.930;8.660;2022-07-22T04:35:35;6.75;;;4.50;;
17340;SDS011;8788;49.930;8.660;2022-07-22T04:38:17;6.22;;;4.85;;
17340;SDS011;8788;49.930;8.660;2022-07-22T04:41:13;5.53;;;4.32;;
17340;SDS011;8788;49.930;8.660;2022-07-22T04:43:41;6.15;;;4.63;;
17340;SDS011;8788;49.930;8.660;2022-07-22T04:46:08;5.82;;;5.05;;
17340;SDS011;8788;49.930;8.660;2022-07-22T04:48:39;5.82;;;4.50;;
17340;SDS011;8788;49.930;8.660;2022-07-22T04:51:06;6.07;;;5.18;;
17340;SDS011;8788;49.930;8.660;2022-07-22T04:53:36;6.43;;;4.68;;
17340;SDS011;8788;49.930;8.660;2022-07-22T04:56:03;6.65;;;5.20;;
17340;SDS011;8788;49.930;8.660;2022-07-22T04:58:31;5.75;;;5.13;;
17340;SDS011;8788;49.930;8.660;2022-07-22T05:01:00;6.43;;;4.80;;
17340;SDS011;8788;49.930;8.660;2022-07-22T05:03:27;8.15;;;4.53;;
17340;SDS011;8788;49.930;8.660;2022-07-22T05:05:54;5.35;;;4.85;;
17340;SDS011;8788;49.930;8.660;2022-07-22T05:08:31;6.20;;;5.30;;
17340;SDS011;8788;49.930;8.660;2022-07-22T05:10:59;10.02;;;4.72;;
17340;SDS011;8788;49.930;8.660;2022-07-22T05:13:27;5.20;;;4.20;;
17340;SDS011;8788;49.930;8.660;2022-07-22T05:15:54;8.45;;;5.25;;
17340;SDS011;8788;49.930;8.660;2022-07-22T05:18:21;5.20;;;4.40;;
17340;SDS011;8788;49.930;8.660;2022-07-22T05:20:48;6.50;;;4.88;;
17340;SDS011;8788;49.930;8.660;2022-07-22T05:23:15;7.10;;;4.90;;
17340;SDS011;8788;49.930;8.660;2022-07-22T05:25:43;5.78;;;4.45;;
17340;SDS011;8788;49.930;8.660;2022-07-22T05:28:11;5.90;;;4.38;;
17340;SDS011;8788;49.930;8.660;2022-07-22T05:30:41;7.05;;;4.82;;
17340;SDS011;8788;49.930;8.660;2022-07-22T05:33:08;6.43;;;5.18;;
17340;SDS011;8788;49.930;8.660;2022-07-22T05:35:56;6.10;;;4.82;;
17340;SDS011;8788;49.930;8.660;2022-07-22T05:38:28;6.63;;;4.80;;
17340;SDS011;8788;49.930;8.660;2022-07-22T05:40:58;5.18;;;4.68;;
17340;SDS011;8788;49.930;8.660;2022-07-22T05:43:26;6.82;;;4.60;;
17340;SDS011;8788;49.930;8.660;2022-07-22T05:45:53;6.25;;;5.10;;
17340;SDS011;8788;49.930;8.660;2022-07-22T05:48:21;6.80;;;4.97;;
17340;SDS011;8788;49.930;8.660;2022-07-22T05:50:48;5.85;;;4.53;;
17340;SDS011;8788;49.930;8.660;2022-07-22T05:53:15;6.72;;;5.47;;
17340;SDS011;8788;49.930;8.660;2022-07-22T05:55:42;10.85;;;5.88;;
17340;SDS011;8788;49.930;8.660;2022-07-22T05:58:10;7.75;;;6.03;;
17340;SDS011;8788;49.930;8.660;2022-07-22T06:00:38;7.43;;;6.47;;
17340;SDS011;8788;49.930;8.660;2022-07-22T06:03:07;6.78;;;5.43;;
17340;SDS011;8788;49.930;8.660;2022-07-22T06:05:34;6.72;;;5.50;;
17340;SDS011;8788;49.930;8.660;2022-07-22T06:08:02;6.88;;;5.53;;
17340;SDS011;8788;49.930;8.660;2022-07-22T06:10:46;7.00;;;5.22;;
17340;SDS011;8788;49.930;8.660;2022-07-22T06:13:14;6.65;;;5.63;;
17340;SDS011;8788;49.930;8.660;2022-07-22T06:15:44;7.13;;;5.85;;
17340;SDS011;8788;49.930;8.660;2022-07-22T06:18:11;6.18;;;5.57;;
17340;SDS011;8788;49.930;8.660;2022-07-22T06:20:38;6.57;;;5.13;;
17340;SDS011;8788;49.930;8.660;2022-07-22T06:23:06;6.10;;;5.05;;
17340;SDS011;8788;49.930;8.660;2022-07-22T06:25:34;8.10;;;5.53;;
17340;SDS011;8788;49.930;8.660;2022-07-22T06:28:02;6.38;;;5.15;;
17340;SDS011;8788;49.930;8.660;2022-07-22T06:30:29;6.35;;;5.53;;
17340;SDS011;8788;49.930;8.660;2022-07-22T06:32:58;7.80;;;4.88;;
17340;SDS011;8788;49.930;8.660;2022-07-22T06:35:25;5.43;;;4.90;;
17340;SDS011;8788;49.930;8.660;2022-07-22T06:37:53;5.50;;;4.95;;
17340;SDS011;8788;49.930;8.660;2022-07-22T06:40:20;6.18;;;4.80;;
17340;SDS011;8788;49.930;8.660;2022-07-22T06:43:13;5.40;;;4.72;;
17340;SDS011;8788;49.930;8.660;2022-07-22T06:46:06;5.20;;;4.80;;
17340;SDS011;8788;49.930;8.660;2022-07-22T06:48:46;5.95;;;4.22;;
17340;SDS011;8788;49.930;8.660;2022-07-22T06:51:14;5.65;;;4.80;;
17340;SDS011;8788;49.930;8.660;2022-07-22T06:53:41;7.30;;;5.20;;
17340;SDS011;8788;49.930;8.660;2022-07-22T06:56:08;5.88;;;5.00;;
17340;SDS011;8788;49.930;8.660;2022-07-22T06:58:36;5.22;;;4.18;;
17340;SDS011;8788;49.930;8.660;2022-07-22T07:01:04;4.97;;;4.47;;
17340;SDS011;8788;49.930;8.660;2022-07-22T07:03:40;6.75;;;4.53;;
17340;SDS011;8788;49.930;8.660;2022-07-22T07:06:10;5.72;;;4.55;;
17340;SDS011;8788;49.930;8.660;2022-07-22T07:09:07;4.28;;;3.80;;
17340;SDS011;8788;49.930;8.660;2022-07-22T07:11:35;4.20;;;3.85;;
17340;SDS011;8788;49.930;8.660;2022-07-22T07:14:10;4.28;;;3.80;;
17340;SDS011;8788;49.930;8.660;2022-07-22T07:16:37;6.82;;;4.05;;
17340;SDS011;8788;49.930;8.660;2022-07-22T07:19:05;3.92;;;3.33;;
17340;SDS011;8788;49.930;8.660;2022-07-22T07:21:33;5.05;;;4.53;;
17340;SDS011;8788;49.930;8.660;2022-07-22T07:24:00;5.53;;;3.97;;
17340;SDS011;8788;49.930;8.660;2022-07-22T07:26:27;4.32;;;3.40;;
17340;SDS011;8788;49.930;8.660;2022-07-22T07:28:55;3.60;;;3.30;;
17340;SDS011;8788;49.930;8.660;2022-07-22T07:31:29;6.03;;;3.60;;
17340;SDS011;8788;49.930;8.660;2022-07-22T07:33:58;6.65;;;3.25;;
17340;SDS011;8788;49.930;8.660;2022-07-22T07:36:26;3.42;;;2.85;;
17340;SDS011;8788;49.930;8.660;2022-07-22T07:38:55;4.30;;;3.45;;
17340;SDS011;8788;49.930;8.660;2022-07-22T07:41:23;3.92;;;3.38;;
17340;SDS011;8788;49.930;8.660;2022-07-22T07:43:50;4.18;;;3.80;;
17340;SDS011;8788;49.930;8.660;2022-07-22T07:46:19;3.90;;;3.58;;
17340;SDS011;8788;49.930;8.660;2022-07-22T07:48:46;5.32;;;3.65;;
17340;SDS011;8788;49.930;8.660;2022-07-22T07:51:14;3.67;;;3.22;;
17340;SDS011;8788;49.930;8.660;2022-07-22T07:53:41;4.32;;;3.78;;
17340;SDS011;8788;49.930;8.660;2022-07-22T07:56:10;4.70;;;3.60;;
17340;SDS011;8788;49.930;8.660;2022-07-22T07:58:37;5.45;;;3.85;;
17340;SDS011;8788;49.930;8.660;2022-07-22T08:01:05;4.90;;;3.90;;
17340;SDS011;8788;49.930;8.660;2022-07-22T08:03:33;3.92;;;3.58;;
17340;SDS011;8788;49.930;8.660;2022-07-22T08:06:01;4.28;;;3.88;;
17340;SDS011;8788;49.930;8.660;2022-07-22T08:08:29;4.35;;;3.95;;
17340;SDS011;8788;49.930;8.660;2022-07-22T08:11:01;4.15;;;3.75;;
17340;SDS011;8788;49.930;8.660;2022-07-22T08:13:45;3.80;;;3.50;;
17340;SDS011;8788;49.930;8.660;2022-07-22T08:16:21;3.85;;;3.45;;
17340;SDS011;8788;49.930;8.660;2022-07-22T08:18:48;5.07;;;4.40;;
17340;SDS011;8788;49.930;8.660;2022-07-22T08:21:16;4.25;;;3.67;;
17340;SDS011;8788;49.930;8.660;2022-07-22T08:23:54;3.88;;;3.50;;
17340;SDS011;8788;49.930;8.660;2022-07-22T08:26:22;4.13;;;3.35;;
17340;SDS011;8788;49.930;8.660;2022-07-22T08:28:51;4.30;;;3.90;;
17340;SDS011;8788;49.930;8.660;2022-07-22T08:31:18;4.65;;;3.70;;
17340;SDS011;8788;49.930;8.660;2022-07-22T08:33:47;3.72;;;3.42;;
17340;SDS011;8788;49.930;8.660;2022-07-22T08:36:14;3.75;;;3.40;;
17340;SDS011;8788;49.930;8.660;2022-07-22T08:38:41;4.35;;;3.90;;
17340;SDS011;8788;49.930;8.660;2022-07-22T08:41:08;4.93;;;3.90;;
17340;SDS011;8788;49.930;8.660;2022-07-22T08:43:37;5.18;;;3.80;;
17340;SDS011;8788;49.930;8.660;2022-07-22T08:46:08;5.05;;;4.40;;
17340;SDS011;8788;49.930;8.660;2022-07-22T08:48:58;4.00;;;3.70;;
17340;SDS011;8788;49.930;8.660;2022-07-22T08:51:45;6.22;;;3.55;;
17340;SDS011;8788;49.930;8.660;2022-07-22T08:54:24;4.03;;;3.20;;
17340;SDS011;8788;49.930;8.660;2022-07-22T08:56:51;4.03;;;3.63;;
17340;SDS011;8788;49.930;8.660;2022-07-22T08:59:20;3.20;;;2.90;;
17340;SDS011;8788;49.930;8.660;2022-07-22T09:02:05;4.07;;;3.60;;
17340;SDS011;8788;49.930;8.660;2022-07-22T09:04:53;3.28;;;2.97;;
17340;SDS011;8788;49.930;8.660;2022-07-22T09:07:29;3.95;;;3.03;;
17340;SDS011;8788;49.930;8.660;2022-07-22T09:10:02;3.72;;;3.42;;
17340;SDS011;8788;49.930;8.660;2022-07-22T09:12:50;3.78;;;3.47;;
17340;SDS011;8788;49.930;8.660;2022-07-22T09:15:38;4.20;;;3.65;;
17340;SDS011;8788;49.930;8.660;2022-07-22T09:18:32;3.95;;;3.55;;
17340;SDS011;8788;49.930;8.660;2022-07-22T09:21:38;3.88;;;3.10;;
17340;SDS011;8788;49.930;8.660;2022-07-22T09:24:25;3.15;;;2.75;;
17340;SDS011;8788;49.930;8.660;2022-07-22T09:26:56;4.10;;;3.50;;
17340;SDS011;8788;49.930;8.660;2022-07-22T09:29:30;3.35;;;2.95;;
17340;SDS011;8788;49.930;8.660;2022-07-22T09:32:17;3.08;;;2.78;;
17340;SDS011;8788;49.930;8.660;2022-07-22T09:34:52;3.63;;;3.15;;
17340;SDS011;8788;49.930;8.660;2022-07-22T09:37:32;3.90;;;3.60;;
17340;SDS011;8788;49.930;8.660;2022-07-22T09:40:11;3.53;;;3.22;;
17340;SDS011;8788;49.930;8.660;2022-07-22T09:42:46;3.65;;;3.28;;
17340;SDS011;8788;49.930;8.660;2022-07-22T09:45:15;4.10;;;3.50;;
17340;SDS011;8788;49.930;8.660;2022-07-22T09:47:43;3.58;;;3.13;;
17340;SDS011;8788;49.930;8.660;2022-07-22T09:50:32;7.03;;;3.55;;
17340;SDS011;8788;49.930;8.660;2022-07-22T09:53:21;3.58;;;3.03;;
17340;SDS011;8788;49.930;8.660;2022-07-22T09:56:15;3.15;;;2.88;;
17340;SDS011;8788;49.930;8.660;2022-07-22T09:58:44;3.22;;;2.70;;
17340;SDS011;8788;49.930;8.660;2022-07-22T10:01:19;4.47;;;3.00;;
17340;SDS011;8788;49.930;8.660;2022-07-22T10:03:47;3.10;;;2.90;;
17340;SDS011;8788;49.930;8.660;2022-07-22T10:06:17;3.22;;;2.97;;
17340;SDS011;8788;49.930;8.660;2022-07-22T10:08:46;3.45;;;3.15;;
17340;SDS011;8788;49.930;8.660;2022-07-22T10:11:14;2.92;;;2.72;;
17340;SDS011;8788;49.930;8.660;2022-07-22T10:13:43;3.10;;;2.90;;
17340;SDS011;8788;49.930;8.660;2022-07-22T10:16:12;2.78;;;2.53;;
17340;SDS011;8788;49.930;8.660;2022-07-22T10:18:43;3.47;;;3.17;;
17340;SDS011;8788;49.930;8.660;2022-07-22T10:21:11;3.20;;;3.00;;
17340;SDS011;8788;49.930;8.660;2022-07-22T10:24:06;4.53;;;2.88;;
17340;SDS011;8788;49.930;8.660;2022-07-22T10:26:48;3.55;;;2.60;;
17340;SDS011;8788;49.930;8.660;2022-07-22T10:29:29;2.90;;;2.65;;
17340;SDS011;8788;49.930;8.660;2022-07-22T10:37:55;2.83;;;2.63;;
17340;SDS011;8788;49.930;8.660;2022-07-22T10:40:26;3.53;;;3.22;;
17340;SDS011;8788;49.930;8.660;2022-07-22T10:43:09;3.10;;;2.90;;
17340;SDS011;8788;49.930;8.660;2022-07-22T10:45:38;4.03;;;2.78;;
17340;SDS011;8788;49.930;8.660;2022-07-22T10:48:09;3.97;;;3.03;;
17340;SDS011;8788;49.930;8.660;2022-07-22T10:50:38;3.78;;;3.42;;
17340;SDS011;8788;49.930;8.660;2022-07-22T10:53:15;2.95;;;2.75;;
17340;SDS011;8788;49.930;8.660;2022-07-22T10:58:48;2.83;;;2.63;;
17340;SDS011;8788;49.930;8.660;2022-07-22T11:01:20;2.65;;;2.45;;
17340;SDS011;8788;49.930;8.660;2022-07-22T11:03:50;2.00;;;1.90;;
17340;SDS011;8788;49.930;8.660;2022-07-22T11:06:19;3.22;;;2.92;;
17340;SDS011;8788;49.930;8.660;2022-07-22T11:08:49;4.60;;;2.35;;
17340;SDS011;8788;49.930;8.660;2022-07-22T11:11:23;2.70;;;2.50;;
17340;SDS011;8788;49.930;8.660;2022-07-22T11:13:58;3.30;;;2.45;;
17340;SDS011;8788;49.930;8.660;2022-07-22T11:16:26;2.72;;;2.40;;
17340;SDS011;8788;49.930;8.660;2022-07-22T11:22:42;3.38;;;2.72;;
17340;SDS011;8788;49.930;8.660;2022-07-22T11:25:13;6.93;;;2.53;;
17340;SDS011;8788;49.930;8.660;2022-07-22T11:27:49;3.03;;;2.72;;
17340;SDS011;8788;49.930;8.660;2022-07-22T11:30:17;2.63;;;2.42;;
17340;SDS011;8788;49.930;8.660;2022-07-22T11:32:45;3.25;;;2.63;;
17340;SDS011;8788;49.930;8.660;2022-07-22T11:35:12;2.55;;;2.35;;
17340;SDS011;8788;49.930;8.660;2022-07-22T11:37:40;2.40;;;2.20;;
17340;SDS011;8788;49.930;8.660;2022-07-22T11:40:08;3.58;;;2.92;;
17340;SDS011;8788;49.930;8.660;2022-07-22T11:42:37;2.60;;;2.40;;
17340;SDS011;8788;49.930;8.660;2022-07-22T11:45:06;3.72;;;2.63;;
17340;SDS011;8788;49.930;8.660;2022-07-22T11:47:34;3.17;;;2.88;;
17340;SDS011;8788;49.930;8.660;2022-07-22T11:50:02;4.72;;;2.58;;
17340;SDS011;8788;49.930;8.660;2022-07-22T11:52:29;4.18;;;2.88;;
17340;SDS011;8788;49.930;8.660;2022-07-22T11:54:57;2.92;;;2.72;;
17340;SDS011;8788;49.930;8.660;2022-07-22T11:57:24;2.97;;;2.63;;
17340;SDS011;8788;49.930;8.660;2022-07-22T11:59:51;3.08;;;2.80;;
17340;SDS011;8788;49.930;8.660;2022-07-22T12:02:20;3.17;;;2.88;;
17340;SDS011;8788;49.930;8.660;2022-07-22T12:04:47;3.20;;;2.90;;
17340;SDS011;8788;49.930;8.660;2022-07-22T12:07:14;5.80;;;2.78;;
17340;SDS011;8788;49.930;8.660;2022-07-22T12:09:43;3.10;;;2.72;;
17340;SDS011;8788;49.930;8.660;2022-07-22T12:12:10;2.78;;;2.58;;
17340;SDS011;8788;49.930;8.660;2022-07-22T12:14:43;5.10;;;2.72;;
17340;SDS011;8788;49.930;8.660;2022-07-22T12:17:11;3.38;;;3.08;;
17340;SDS011;8788;49.930;8.660;2022-07-22T12:19:41;2.75;;;2.55;;
17340;SDS011;8788;49.930;8.660;2022-07-22T12:22:09;3.83;;;2.95;;
17340;SDS011;8788;49.930;8.660;2022-07-22T12:24:39;3.10;;;2.88;;
17340;SDS011;8788;49.930;8.660;2022-07-22T12:27:07;3.53;;;3.22;;
17340;SDS011;8788;49.930;8.660;2022-07-22T12:29:41;3.38;;;2.97;;
17340;SDS011;8788;49.930;8.660;2022-07-22T12:32:10;3.35;;;3.05;;
17340;SDS011;8788;49.930;8.660;2022-07-22T12:34:43;2.72;;;2.55;;
17340;SDS011;8788;49.930;8.660;2022-07-22T12:37:12;4.30;;;2.92;;
17340;SDS011;8788;49.930;8.660;2022-07-22T12:39:52;4.70;;;3.13;;
17340;SDS011;8788;49.930;8.660;2022-07-22T12:42:20;3.67;;;2.85;;
17340;SDS011;8788;49.930;8.660;2022-07-22T12:44:50;3.13;;;2.80;;
17340;SDS011;8788;49.930;8.660;2022-07-22T12:50:21;4.25;;;3.08;;
17340;SDS011;8788;49.930;8.660;2022-07-22T12:52:51;2.90;;;2.70;;
17340;SDS011;8788;49.930;8.660;2022-07-22T12:55:19;3.15;;;2.92;;
17340;SDS011;8788;49.930;8.660;2022-07-22T12:57:46;3.50;;;3.20;;
17340;SDS011;8788;49.930;8.660;2022-07-22T13:00:17;5.45;;;3.92;;
17340;SDS011;8788;49.930;8.660;2022-07-22T13:02:44;3.38;;;3.08;;
17340;SDS011;8788;49.930;8.660;2022-07-22T13:05:11;3.05;;;2.80;;
17340;SDS011;8788;49.930;8.660;2022-07-22T13:07:40;4.82;;;2.70;;
17340;SDS011;8788;49.930;8.660;2022-07-22T13:10:08;3.15;;;2.92;;
17340;SDS011;8788;49.930;8.660;2022-07-22T13:12:36;3.25;;;3.00;;
17340;SDS011;8788;49.930;8.660;2022-07-22T13:15:03;3.70;;;3.40;;
17340;SDS011;8788;49.930;8.660;2022-07-22T13:17:31;3.83;;;2.80;;
17340;SDS011;8788;49.930;8.660;2022-07-22T13:19:58;3.63;;;3.33;;
17340;SDS011;8788;49.930;8.660;2022-07-22T13:22:26;2.80;;;2.60;;
17340;SDS011;8788;49.930;8.660;2022-07-22T13:24:54;3.28;;;3.00;;
17340;SDS011;8788;49.930;8.660;2022-07-22T13:27:21;4.68;;;3.00;;
17340;SDS011;8788;49.930;8.660;2022-07-22T13:29:48;3.47;;;3.17;;
17340;SDS011;8788;49.930;8.660;2022-07-22T13:32:15;2.83;;;2.53;;
17340;SDS011;8788;49.930;8.660;2022-07-22T13:34:43;3.92;;;3.53;;
17340;SDS011;8788;49.930;8.660;2022-07-22T13:37:10;4.05;;;3.45;;
17340;SDS011;8788;49.930;8.660;2022-07-22T13:39:37;3.25;;;2.95;;
17340;SDS011;8788;49.930;8.660;2022-07-22T13:42:07;7.18;;;3.40;;
17340;SDS011;8788;49.930;8.660;2022-07-22T13:44:34;3.40;;;3.20;;
17340;SDS011;8788;49.930;8.660;2022-07-22T13:47:01;3.15;;;2.95;;
17340;SDS011;8788;49.930;8.660;2022-07-22T13:49:29;3.30;;;2.83;;
17340;SDS011;8788;49.930;8.660;2022-07-22T13:51:56;2.75;;;2.55;;
17340;SDS011;8788;49.930;8.660;2022-07-22T13:54:23;3.67;;;2.78;;
17340;SDS011;8788;49.930;8.660;2022-07-22T13:56:50;3.25;;;2.92;;
17340;SDS011;8788;49.930;8.660;2022-07-22T13:59:19;4.03;;;3.58;;
17340;SDS011;8788;49.930;8.660;2022-07-22T14:01:46;4.75;;;3.10;;
17340;SDS011;8788;49.930;8.660;2022-07-22T14:04:14;3.40;;;3.05;;
17340;SDS011;8788;49.930;8.660;2022-07-22T14:06:41;3.30;;;3.00;;
17340;SDS011;8788;49.930;8.660;2022-07-22T14:09:08;4.47;;;3.10;;
17340;SDS011;8788;49.930;8.660;2022-07-22T14:11:35;4.80;;;2.83;;
17340;SDS011;8788;49.930;8.660;2022-07-22T14:14:03;3.42;;;3.13;;
17340;SDS011;8788;49.930;8.660;2022-07-22T14:16:32;3.10;;;2.90;;
17340;SDS011;8788;49.930;8.660;2022-07-22T14:19:00;3.97;;;3.65;;
17340;SDS011;8788;49.930;8.660;2022-07-22T14:21:27;2.97;;;2.75;;
17340;SDS011;8788;49.930;8.660;2022-07-22T14:23:54;3.75;;;3.42;;
17340;SDS011;8788;49.930;8.660;2022-07-22T14:26:22;3.20;;;2.90;;
17340;SDS011;8788;49.930;8.660;2022-07-22T14:28:49;3.17;;;2.97;;
17340;SDS011;8788;49.930;8.660;2022-07-22T14:31:16;2.95;;;2.75;;
17340;SDS011;8788;49.930;8.660;2022-07-22T14:33:45;5.53;;;3.67;;
17340;SDS011;8788;49.930;8.660;2022-07-22T14:36:13;3.58;;;3.15;;
17340;SDS011;8788;49.930;8.660;2022-07-22T14:38:40;3.13;;;2.83;;
17340;SDS011;8788;49.930;8.660;2022-07-22T14:41:07;3.47;;;2.80;;
17340;SDS011;8788;49.930;8.660;2022-07-22T14:43:35;3.70;;;3.40;;
17340;SDS011;8788;49.930;8.660;2022-07-22T14:46:03;4.68;;;3.20;;
17340;SDS011;8788;49.930;8.660;2022-07-22T14:48:32;4.55;;;2.67;;
17340;SDS011;8788;49.930;8.660;2022-07-22T14:51:01;3.13;;;2.90;;
17340;SDS011;8788;49.930;8.660;2022-07-22T14:53:28;3.47;;;3.17;;
17340;SDS011;8788;49.930;8.660;2022-07-22T14:55:55;3.35;;;3.03;;
17340;SDS011;8788;49.930;8.660;2022-07-22T14:58:22;6.47;;;3.10;;
17340;SDS011;8788;49.930;8.660;2022-07-22T15:00:49;3.10;;;2.90;;
17340;SDS011;8788;49.930;8.660;2022-07-22T15:03:17;3.83;;;3.33;;
17340;SDS011;8788;49.930;8.660;2022-07-22T15:05:44;4.13;;;2.85;;
17340;SDS011;8788;49.930;8.660;2022-07-22T15:08:13;3.38;;;3.08;;
17340;SDS011;8788;49.930;8.660;2022-07-22T15:10:40;4.07;;;3.05;;
17340;SDS011;8788;49.930;8.660;2022-07-22T15:13:07;3.67;;;3.08;;
17340;SDS011;8788;49.930;8.660;2022-07-22T15:15:34;3.22;;;3.00;;
17340;SDS011;8788;49.930;8.660;2022-07-22T15:18:01;3.40;;;3.10;;
17340;SDS011;8788;49.930;8.660;2022-07-22T15:20:29;3.42;;;3.22;;
17340;SDS011;8788;49.930;8.660;2022-07-22T15:22:57;4.68;;;3.25;;
17340;SDS011;8788;49.930;8.660;2022-07-22T15:25:25;4.07;;;3.67;;
17340;SDS011;8788;49.930;8.660;2022-07-22T15:27:53;3.65;;;3.10;;
17340;SDS011;8788;49.930;8.660;2022-07-22T15:30:20;3.65;;;3.35;;
17340;SDS011;8788;49.930;8.660;2022-07-22T15:32:47;3.50;;;3.20;;